Alta Loma, Texas
Current Conditions -  °F | °C
As of 3:52 PM on Saturday 25 Oct 2014 (Local Time) from KGLS Reporting Station
Clear Clear  
Wind Chill: 77°   Ceiling: Unl
Heat Index: 79°   Visibility: 10mi
Dew Point: 59°   Wind: 5mph
Humidity: 54%   Direction: NA
Pressure: 30.12"   Gusts: NA
Location:  29.359°N, 95.0861°W
Report Text: KGLS 252052Z VRB04KT 10SM CLR 25/15 A3012 RMK AO2 SLP199 T02500150 56014
Loading
Personal Weather Stations






























Interactive Weather Map
Tropical Storm Tracking
New forecast layout! Learn more

10-Day Weather Forecast

Advertisements
Track Severe Weather on mobile